createdAt,value
2023-01-13T00:04:24.072Z,2.53
2023-01-13T00:09:25.189Z,1.52
2023-01-13T00:14:28.942Z,0.85
2023-01-13T00:19:29.837Z,0.90
2023-01-13T00:24:30.639Z,0.43
2023-01-13T00:29:31.392Z,2.87
2023-01-13T00:34:32.573Z,0.80
2023-01-13T00:39:33.321Z,2.25
2023-01-13T00:44:34.026Z,7.53
2023-01-13T00:49:34.884Z,9.45
2023-01-13T00:54:35.582Z,2.05
2023-01-13T00:59:36.891Z,0.47
2023-01-13T01:04:37.649Z,1.12
2023-01-13T01:09:39.145Z,0.82
2023-01-13T01:14:39.868Z,0.30
2023-01-13T01:19:41.456Z,0.10
2023-01-13T01:24:42.144Z,1.55
2023-01-13T01:29:42.992Z,0.62
2023-01-13T01:34:43.718Z,0.85
2023-01-13T01:39:44.471Z,0.30
2023-01-13T01:48:16.626Z,0.73
2023-01-13T01:53:20.235Z,0.17
2023-01-13T01:58:28.958Z,0.60
2023-01-13T02:03:30.837Z,0.52
2023-01-13T02:08:32.073Z,0.88
2023-01-13T02:13:32.877Z,1.37
2023-01-13T02:20:47.859Z,1.20
2023-01-13T02:26:12.050Z,1.05
2023-01-13T02:31:33.548Z,1.27
2023-01-13T02:36:59.223Z,2.25
2023-01-13T02:42:29.583Z,1.33
2023-01-13T02:47:35.149Z,1.95
2023-01-13T02:52:48.642Z,2.42
2023-01-13T02:57:51.987Z,0.00
2023-01-13T03:11:06.948Z,0.00
2023-01-13T03:16:22.794Z,0.10
2023-01-13T03:21:49.083Z,0.65
2023-01-13T03:27:05.269Z,0.00
2023-01-13T03:32:19.357Z,0.10
2023-01-13T03:37:27.381Z,0.05
2023-01-13T03:42:31.596Z,0.13
2023-01-13T03:47:54.182Z,0.37
2023-01-13T03:53:05.890Z,0.53
2023-01-13T03:58:20.586Z,0.65
2023-01-13T04:05:13.647Z,0.80
2023-01-13T04:10:20.434Z,0.93
2023-01-13T04:15:24.386Z,0.22
2023-01-13T04:20:25.143Z,0.82
2023-01-13T04:25:25.960Z,1.80
2023-01-13T04:30:26.946Z,0.50
2023-01-13T04:35:27.862Z,0.98
2023-01-13T04:40:28.632Z,2.00
2023-01-13T04:45:30.137Z,2.17
2023-01-13T04:50:31.215Z,1.55
2023-01-13T04:55:32.293Z,0.45
2023-01-13T05:00:33.402Z,0.28
2023-01-13T05:05:34.432Z,3.22
2023-01-13T05:10:35.992Z,2.25
2023-01-13T05:15:58.663Z,5.33
2023-01-13T05:20:59.430Z,0.70
2023-01-13T05:26:01.069Z,0.20
2023-01-13T05:31:01.999Z,3.05
2023-01-13T05:36:03.559Z,2.67
2023-01-13T05:41:23.118Z,0.68
2023-01-13T05:46:23.980Z,3.10
2023-01-13T05:51:25.461Z,1.65
2023-01-13T05:56:26.229Z,3.10
2023-01-13T06:01:27.095Z,4.50
2023-01-13T06:06:27.973Z,2.97
2023-01-13T06:11:28.735Z,3.65
2023-01-13T06:16:29.528Z,7.30
2023-01-13T06:21:32.968Z,5.93
2023-01-13T06:26:40.757Z,3.67
2023-01-13T06:31:42.097Z,4.80
2023-01-13T06:36:47.494Z,3.47
2023-01-13T06:43:22.783Z,3.00
2023-01-13T06:48:32.153Z,8.70
2023-01-13T06:53:32.926Z,7.32
2023-01-13T06:58:33.732Z,7.80
2023-01-13T07:03:34.496Z,2.97
2023-01-13T07:08:35.326Z,5.85
2023-01-13T07:13:54.527Z,3.15
2023-01-13T07:18:55.513Z,3.65
2023-01-13T07:23:57.234Z,5.93
2023-01-13T07:28:58.359Z,5.03
2023-01-13T07:33:59.119Z,11.00
2023-01-13T07:39:00.218Z,13.62
2023-01-13T07:44:05.322Z,15.95
2023-01-13T07:49:07.527Z,7.05
2023-01-13T07:54:08.288Z,7.20
2023-01-13T07:59:09.155Z,5.18
2023-01-13T08:04:09.869Z,6.22
2023-01-13T08:09:10.850Z,5.68
2023-01-13T08:14:11.696Z,7.15
2023-01-13T08:19:12.559Z,5.57
2023-01-13T08:24:13.661Z,8.85
2023-01-13T08:29:15.228Z,5.72
2023-01-13T08:34:16.258Z,7.10
2023-01-13T08:39:17.877Z,7.57
2023-01-13T08:44:18.789Z,7.03
2023-01-13T08:49:19.990Z,6.28
2023-01-13T08:54:20.906Z,7.80
2023-01-13T08:59:21.826Z,6.35
2023-01-13T09:04:24.516Z,6.82
2023-01-13T09:09:26.920Z,9.95
2023-01-13T09:14:30.929Z,8.87
2023-01-13T09:19:31.844Z,10.40
2023-01-13T09:24:32.723Z,11.35
2023-01-13T09:29:33.833Z,7.43
2023-01-13T09:34:52.775Z,13.80
2023-01-13T09:39:53.778Z,11.15
2023-01-13T09:45:17.824Z,11.32
2023-01-13T09:50:33.264Z,13.60
2023-01-13T09:55:36.195Z,10.35
2023-01-13T10:07:13.176Z,13.50
2023-01-13T10:12:37.245Z,11.67
2023-01-13T10:17:47.218Z,10.80
2023-01-13T10:26:09.743Z,14.43
2023-01-13T10:31:14.220Z,11.48
2023-01-13T10:36:22.195Z,13.15
2023-01-13T10:41:27.010Z,9.85
2023-01-13T10:46:29.912Z,8.02
2023-01-13T10:51:43.156Z,14.82
2023-01-13T10:56:44.668Z,14.05
2023-01-13T11:02:36.229Z,15.13
2023-01-13T11:07:40.041Z,12.20
2023-01-13T11:12:53.329Z,10.85
2023-01-13T11:23:16.654Z,13.38
2023-01-13T11:29:09.015Z,11.73
2023-01-13T11:34:26.679Z,12.02
2023-01-13T11:39:53.101Z,7.70
2023-01-13T11:46:28.104Z,16.10
2023-01-13T11:51:35.656Z,9.95
2023-01-13T12:00:27.345Z,12.13
2023-01-13T12:05:41.792Z,13.05
2023-01-13T12:11:16.030Z,15.20
2023-01-13T12:16:22.912Z,14.35
2023-01-13T12:21:28.121Z,11.05
2023-01-13T12:26:34.892Z,12.35
2023-01-13T12:31:38.974Z,11.18
2023-01-13T12:43:39.550Z,15.02
2023-01-13T12:50:20.687Z,12.70
2023-01-13T12:55:31.816Z,14.80
2023-01-13T13:01:35.451Z,15.57
2023-01-13T13:06:41.281Z,12.73
2023-01-13T13:15:19.428Z,14.10
2023-01-13T13:25:44.055Z,10.77
2023-01-13T13:31:05.153Z,12.52
2023-01-13T13:36:34.595Z,10.98
2023-01-13T13:41:54.396Z,15.07
2023-01-13T13:47:10.901Z,13.00
2023-01-13T13:54:04.258Z,11.30
2023-01-13T13:59:10.331Z,11.00
2023-01-13T14:04:25.062Z,8.40
2023-01-13T14:09:37.953Z,8.82
2023-01-13T14:14:42.543Z,14.38
2023-01-13T14:19:46.875Z,12.52
2023-01-13T14:24:54.427Z,7.62
2023-01-13T14:29:59.210Z,54.92
2023-01-13T14:35:00.119Z,9.10
2023-01-13T14:40:01.261Z,9.95
2023-01-13T14:45:02.739Z,13.77
2023-01-13T14:50:18.478Z,12.30
2023-01-13T14:55:32.979Z,12.68
2023-01-13T15:00:34.944Z,11.73
2023-01-13T15:05:38.682Z,12.75
2023-01-13T15:10:53.719Z,13.43
2023-01-13T15:16:00.793Z,17.60
2023-01-13T15:21:01.695Z,11.50
2023-01-13T15:26:03.215Z,15.65
2023-01-13T15:31:04.329Z,13.48
2023-01-13T15:36:15.978Z,9.68
2023-01-13T15:41:16.754Z,17.00
2023-01-13T15:46:37.107Z,9.32
2023-01-13T15:51:39.430Z,14.38
2023-01-13T15:56:41.410Z,10.37
2023-01-13T16:01:42.291Z,11.50
2023-01-13T16:06:43.302Z,14.15
2023-01-13T16:11:44.086Z,12.98
2023-01-13T16:16:44.907Z,8.60
2023-01-13T16:21:45.638Z,13.60
2023-01-13T16:26:46.433Z,12.10
2023-01-13T16:31:47.293Z,12.60
2023-01-13T16:36:48.155Z,11.40
2023-01-13T16:41:49.216Z,10.65
2023-01-13T16:46:50.101Z,24.90
2023-01-13T16:51:50.883Z,8.80
2023-01-13T16:56:52.171Z,16.70
2023-01-13T17:01:53.093Z,11.73
2023-01-13T17:06:57.575Z,14.32
2023-01-13T17:11:58.550Z,12.57
2023-01-13T17:16:59.339Z,18.77
2023-01-13T17:22:00.134Z,10.15
2023-01-13T17:27:02.439Z,14.48
2023-01-13T17:32:03.974Z,20.40
2023-01-13T17:37:04.842Z,11.40
2023-01-13T17:42:05.587Z,19.25
2023-01-13T17:47:06.499Z,21.48
2023-01-13T17:52:07.254Z,14.25
2023-01-13T17:57:08.914Z,15.38
2023-01-13T18:02:11.931Z,19.37
2023-01-13T18:07:12.970Z,13.38
2023-01-13T18:12:14.146Z,19.98
2023-01-13T18:17:16.146Z,16.20
2023-01-13T18:22:35.404Z,14.18
2023-01-13T18:27:39.011Z,17.50
2023-01-13T18:32:40.057Z,14.77
2023-01-13T18:37:41.455Z,15.98
2023-01-13T18:42:51.563Z,13.75
2023-01-13T18:47:54.924Z,12.18
2023-01-13T18:57:57.561Z,17.40
2023-01-13T19:08:06.879Z,22.42
2023-01-13T19:13:07.644Z,15.02
2023-01-13T19:18:08.423Z,21.83
2023-01-13T19:23:11.035Z,18.15
2023-01-13T19:28:11.780Z,19.52
2023-01-13T19:33:12.593Z,27.90
2023-01-13T19:38:13.441Z,18.67
2023-01-13T19:43:32.751Z,14.40
2023-01-13T19:48:33.644Z,14.85
2023-01-13T19:53:34.542Z,21.55
2023-01-13T19:58:35.361Z,19.20
2023-01-13T20:03:37.501Z,19.50
2023-01-13T20:08:38.610Z,33.20
2023-01-13T20:13:39.353Z,16.58
2023-01-13T20:18:40.143Z,18.50
2023-01-13T20:23:41.179Z,23.35
2023-01-13T20:28:42.073Z,17.52
2023-01-13T20:33:43.025Z,27.42
2023-01-13T20:38:43.827Z,26.40
2023-01-13T20:43:44.568Z,19.62
2023-01-13T20:48:45.583Z,21.17
2023-01-13T20:53:46.368Z,24.95
2023-01-13T20:58:47.278Z,25.77
2023-01-13T21:03:48.636Z,25.67
2023-01-13T21:08:52.382Z,22.05
2023-01-13T21:14:11.277Z,13.57
2023-01-13T21:19:12.082Z,20.17
2023-01-13T21:24:13.229Z,18.85
2023-01-13T21:29:14.099Z,17.08
2023-01-13T21:34:15.128Z,24.70
2023-01-13T21:39:16.085Z,19.90
2023-01-13T21:44:38.377Z,23.45
2023-01-13T21:49:43.347Z,19.70
2023-01-13T21:55:02.584Z,30.65
2023-01-13T22:00:04.510Z,36.30
2023-01-13T22:05:07.988Z,28.67
2023-01-13T22:10:12.338Z,23.83
2023-01-13T22:15:15.666Z,25.60
2023-01-13T22:20:17.544Z,24.60
2023-01-13T22:25:19.380Z,23.25
2023-01-13T22:30:20.942Z,26.48
2023-01-13T22:35:21.850Z,33.03
2023-01-13T22:40:22.779Z,21.05
2023-01-13T22:45:23.609Z,27.33
2023-01-13T22:50:24.326Z,26.92
2023-01-13T22:55:25.090Z,20.73
2023-01-13T23:00:25.828Z,23.40
2023-01-13T23:05:27.197Z,22.70
2023-01-13T23:10:28.268Z,27.30
2023-01-13T23:15:30.190Z,26.25
2023-01-13T23:20:30.997Z,19.60
2023-01-13T23:25:31.772Z,15.32
2023-01-13T23:30:32.565Z,24.58
2023-01-13T23:35:33.372Z,21.98
2023-01-13T23:40:34.511Z,25.92
2023-01-13T23:45:35.328Z,21.95
2023-01-13T23:50:36.421Z,28.40
2023-01-13T23:55:37.179Z,23.25
